createdAt,value
2019-03-06T00:00:58.106Z,78.20
2019-03-06T00:04:02.463Z,78.30
2019-03-06T00:07:06.801Z,78.10
2019-03-06T00:10:24.336Z,78.30
2019-03-06T00:13:28.592Z,78.20
2019-03-06T00:16:32.998Z,78.40
2019-03-06T00:19:37.267Z,78.40
2019-03-06T00:22:41.648Z,78.30
2019-03-06T00:25:46.003Z,78.40
2019-03-06T00:28:50.380Z,78.60
2019-03-06T00:31:54.600Z,78.40
2019-03-06T00:35:00.762Z,78.30
2019-03-06T00:38:05.112Z,78.80
2019-03-06T00:41:28.412Z,78.70
2019-03-06T00:44:32.760Z,79.00
2019-03-06T00:47:37.114Z,79.00
2019-03-06T00:50:41.459Z,79.00
2019-03-06T00:53:45.665Z,78.90
2019-03-06T00:56:49.953Z,79.10
2019-03-06T00:59:54.364Z,79.20
2019-03-06T01:02:58.697Z,79.50
2019-03-06T01:06:04.363Z,79.40
2019-03-06T01:09:09.409Z,79.60
2019-03-06T01:12:13.778Z,80.00
2019-03-06T01:15:18.236Z,80.40
2019-03-06T01:18:22.766Z,79.90
2019-03-06T01:21:27.096Z,80.00
2019-03-06T01:24:31.463Z,80.10
2019-03-06T01:27:35.805Z,80.00
2019-03-06T01:30:40.104Z,80.00
2019-03-06T01:33:49.463Z,80.20
2019-03-06T01:37:02.920Z,80.30
2019-03-06T01:40:24.272Z,80.30
2019-03-06T01:43:39.467Z,80.60
2019-03-06T01:46:43.815Z,81.40
2019-03-06T01:49:48.092Z,80.30
2019-03-06T01:52:52.267Z,80.30
2019-03-06T01:55:56.550Z,80.80
2019-03-06T01:59:01.104Z,80.50
2019-03-06T02:02:05.664Z,80.50
2019-03-06T02:05:11.347Z,80.20
2019-03-06T02:08:17.412Z,79.80
2019-03-06T02:11:21.662Z,79.80
2019-03-06T02:14:26.384Z,79.80
2019-03-06T02:17:30.639Z,79.60
2019-03-06T02:20:35.130Z,79.80
2019-03-06T02:23:39.420Z,80.00
2019-03-06T02:26:43.714Z,80.70
2019-03-06T02:29:48.052Z,80.60
2019-03-06T02:32:52.725Z,80.80
2019-03-06T02:35:57.054Z,80.70
2019-03-06T02:39:01.424Z,80.80
2019-03-06T02:42:05.700Z,80.90
2019-03-06T02:45:12.764Z,81.00
2019-03-06T02:48:17.013Z,80.90
2019-03-06T02:51:21.282Z,80.90
2019-03-06T02:54:25.642Z,80.70
2019-03-06T02:57:29.982Z,80.70
2019-03-06T03:00:59.203Z,80.70
2019-03-06T03:04:25.340Z,80.70
2019-03-06T03:07:29.656Z,80.90
2019-03-06T03:10:33.973Z,81.00
2019-03-06T03:13:38.518Z,80.80
2019-03-06T03:16:42.806Z,80.90
2019-03-06T03:19:47.043Z,80.60
2019-03-06T03:22:51.325Z,80.80
2019-03-06T03:25:55.657Z,80.80
2019-03-06T03:28:59.970Z,80.60
2019-03-06T03:32:04.375Z,80.80
2019-03-06T03:35:09.321Z,80.70
2019-03-06T03:38:13.655Z,80.70
2019-03-06T03:41:18.005Z,80.80
2019-03-06T03:44:22.395Z,80.80
2019-03-06T03:47:26.676Z,80.70
2019-03-06T03:50:31.015Z,80.60
2019-03-06T03:53:35.376Z,80.60
2019-03-06T03:56:40.006Z,80.50
2019-03-06T03:59:44.357Z,80.30
2019-03-06T04:02:48.781Z,80.10
2019-03-06T04:05:53.109Z,80.20
2019-03-06T04:08:57.365Z,80.20
2019-03-06T04:12:01.740Z,80.30
2019-03-06T04:15:07.375Z,80.90
2019-03-06T04:18:11.877Z,80.10
2019-03-06T04:21:16.128Z,80.00
2019-03-06T04:24:20.427Z,80.00
2019-03-06T04:27:24.771Z,80.00
2019-03-06T04:30:29.058Z,79.80
2019-03-06T04:33:33.267Z,79.50
2019-03-06T04:36:37.559Z,79.40
2019-03-06T04:39:41.895Z,79.30
2019-03-06T04:42:46.252Z,78.90
2019-03-06T04:45:50.587Z,78.70
2019-03-06T04:48:54.797Z,78.80
2019-03-06T04:51:59.135Z,78.80
2019-03-06T04:55:03.431Z,78.40
2019-03-06T04:58:07.705Z,78.20
2019-03-06T05:01:12.198Z,78.10
2019-03-06T05:04:16.451Z,77.60
2019-03-06T05:07:20.764Z,77.60
2019-03-06T05:10:25.103Z,77.30
2019-03-06T05:13:29.395Z,77.30
2019-03-06T05:16:58.498Z,77.10
2019-03-06T05:20:02.994Z,76.80
2019-03-06T05:23:07.363Z,76.80
2019-03-06T05:26:11.648Z,77.50
2019-03-06T05:29:15.904Z,76.50
2019-03-06T05:32:34.211Z,76.30
2019-03-06T05:36:22.982Z,76.20
2019-03-06T05:39:27.372Z,76.20
2019-03-06T05:42:31.702Z,76.20
2019-03-06T05:45:36.076Z,76.20
2019-03-06T05:48:40.702Z,75.90
2019-03-06T05:51:45.002Z,76.10
2019-03-06T05:54:49.276Z,76.00
2019-03-06T05:57:53.635Z,76.00
2019-03-06T06:00:58.190Z,76.10
2019-03-06T06:04:02.560Z,76.30
2019-03-06T06:07:06.921Z,76.50
2019-03-06T06:10:12.112Z,76.70
2019-03-06T06:13:16.456Z,76.90
2019-03-06T06:16:20.748Z,77.10
2019-03-06T06:19:25.028Z,77.30
2019-03-06T06:22:51.327Z,77.40
2019-03-06T06:25:55.656Z,78.00
2019-03-06T06:29:00.033Z,78.00
2019-03-06T06:32:04.355Z,78.20
2019-03-06T06:35:09.196Z,78.70
2019-03-06T06:38:13.734Z,79.50
2019-03-06T06:41:18.047Z,80.10
2019-03-06T06:44:22.423Z,80.80
2019-03-06T06:47:26.716Z,81.40
2019-03-06T06:50:30.986Z,81.80
2019-03-06T06:53:38.680Z,82.80
2019-03-06T06:57:20.606Z,82.60
2019-03-06T07:01:18.894Z,82.40
2019-03-06T07:05:31.401Z,82.20
2019-03-06T07:08:49.298Z,82.00
2019-03-06T07:12:05.512Z,82.50
2019-03-06T07:15:31.768Z,82.50
2019-03-06T07:19:01.103Z,82.80
2019-03-06T07:22:26.095Z,82.40
2019-03-06T07:26:01.779Z,82.60
2019-03-06T07:29:21.581Z,82.50
2019-03-06T07:32:43.707Z,82.70
2019-03-06T07:36:13.388Z,82.40
2019-03-06T07:39:26.942Z,82.70
2019-03-06T07:42:49.271Z,82.70
2019-03-06T07:46:07.695Z,82.50
2019-03-06T07:49:19.280Z,82.60
2019-03-06T07:52:35.035Z,82.50
2019-03-06T07:55:49.810Z,82.50
2019-03-06T07:58:57.313Z,82.20
2019-03-06T08:02:05.692Z,82.10
2019-03-06T08:05:11.683Z,82.10
2019-03-06T08:08:16.053Z,81.80
2019-03-06T08:11:45.385Z,81.50
2019-03-06T08:15:26.898Z,81.30
2019-03-06T08:18:50.186Z,81.10
2019-03-06T08:22:04.075Z,80.90
2019-03-06T08:25:26.459Z,80.50
2019-03-06T08:28:30.829Z,80.20
2019-03-06T08:31:41.099Z,79.80
2019-03-06T08:34:45.397Z,79.50
2019-03-06T08:37:49.664Z,79.30
2019-03-06T08:41:03.561Z,79.00
2019-03-06T08:43:59.931Z,78.70
2019-03-06T08:47:29.316Z,78.30
2019-03-06T08:50:55.396Z,77.80
2019-03-06T08:54:27.757Z,77.50
2019-03-06T08:57:54.167Z,77.50
2019-03-06T09:01:33.948Z,77.30
2019-03-06T09:04:57.386Z,76.40
2019-03-06T09:08:20.691Z,75.50
2019-03-06T09:11:42.865Z,75.30
2019-03-06T09:15:08.939Z,75.10
2019-03-06T09:18:35.263Z,74.60
2019-03-06T09:22:07.664Z,74.00
2019-03-06T09:25:26.020Z,73.40
2019-03-06T09:28:42.479Z,73.20
2019-03-06T09:32:07.083Z,72.30
2019-03-06T09:35:42.848Z,71.50
2019-03-06T09:38:59.991Z,71.00
2019-03-06T09:50:25.883Z,69.60
2019-03-06T10:01:07.156Z,69.10
2019-03-06T10:04:20.691Z,69.00
2019-03-06T10:07:44.761Z,68.00
2019-03-06T10:11:01.176Z,68.30
2019-03-06T10:14:16.854Z,68.30
2019-03-06T10:17:46.090Z,68.00
2019-03-06T10:20:50.363Z,67.70
2019-03-06T10:23:54.735Z,67.10
2019-03-06T10:26:59.090Z,65.50
2019-03-06T10:30:05.054Z,64.20
2019-03-06T10:33:09.409Z,63.30
2019-03-06T10:36:13.768Z,62.90
2019-03-06T10:39:18.145Z,62.90
2019-03-06T10:42:22.514Z,61.30
2019-03-06T10:45:26.867Z,60.10
2019-03-06T10:48:31.551Z,61.20
2019-03-06T10:51:35.887Z,60.90
2019-03-06T10:54:44.703Z,59.90
2019-03-06T10:57:46.251Z,58.90
2019-03-06T11:00:52.912Z,57.70
2019-03-06T11:04:15.004Z,56.50
2019-03-06T11:07:20.462Z,56.10
2019-03-06T11:10:26.753Z,55.50
2019-03-06T11:13:31.655Z,54.90
2019-03-06T11:16:40.954Z,54.70
2019-03-06T11:19:42.212Z,53.80
2019-03-06T11:22:46.486Z,52.60
2019-03-06T11:25:50.844Z,53.20
2019-03-06T11:28:55.217Z,53.30
2019-03-06T11:31:59.610Z,53.70
2019-03-06T11:35:04.104Z,53.80
2019-03-06T11:38:09.116Z,53.70
2019-03-06T11:41:13.459Z,53.70
2019-03-06T11:44:17.769Z,54.00
2019-03-06T11:47:22.132Z,53.90
2019-03-06T11:50:26.512Z,53.30
2019-03-06T11:53:32.848Z,53.30
2019-03-06T11:56:36.973Z,52.70
2019-03-06T11:59:41.330Z,52.10
2019-03-06T12:02:45.902Z,51.70
2019-03-06T12:05:50.863Z,51.10
2019-03-06T12:08:55.147Z,50.30
2019-03-06T12:12:00.087Z,49.70
2019-03-06T12:15:05.284Z,48.80
2019-03-06T12:18:09.626Z,48.30
2019-03-06T12:21:14.023Z,48.20
2019-03-06T12:24:18.423Z,48.00
2019-03-06T12:27:22.743Z,47.60
2019-03-06T12:30:27.193Z,47.40
2019-03-06T12:33:31.557Z,47.20
2019-03-06T12:36:36.240Z,46.60
2019-03-06T12:39:40.687Z,46.20
2019-03-06T12:42:45.023Z,46.30
2019-03-06T12:46:22.959Z,45.60
2019-03-06T12:49:22.850Z,45.50
2019-03-06T12:52:27.280Z,45.60
2019-03-06T12:55:31.772Z,45.40
2019-03-06T12:58:36.242Z,45.00
2019-03-06T13:01:40.632Z,44.70
2019-03-06T13:04:44.929Z,44.40
2019-03-06T13:07:49.201Z,44.60
2019-03-06T13:10:53.632Z,44.40
2019-03-06T13:13:58.000Z,44.30
2019-03-06T13:17:02.380Z,43.60
2019-03-06T13:20:08.984Z,43.60
2019-03-06T13:23:13.905Z,43.50
2019-03-06T13:26:18.136Z,43.30
2019-03-06T13:29:22.497Z,43.10
2019-03-06T13:32:33.305Z,42.80
2019-03-06T13:35:38.299Z,42.80
2019-03-06T13:38:42.672Z,42.60
2019-03-06T13:41:47.110Z,42.60
2019-03-06T13:44:53.282Z,42.30
2019-03-06T13:47:57.593Z,42.70
2019-03-06T13:51:01.947Z,42.60
2019-03-06T13:54:06.730Z,42.10
2019-03-06T13:57:11.090Z,41.50
2019-03-06T14:00:17.142Z,41.30
2019-03-06T14:03:21.501Z,41.00
2019-03-06T14:06:26.166Z,40.70
2019-03-06T14:09:30.505Z,40.20
2019-03-06T14:12:35.181Z,40.20
2019-03-06T14:15:39.530Z,40.10
2019-03-06T14:18:44.109Z,39.80
2019-03-06T14:21:48.586Z,40.00
2019-03-06T14:24:53.182Z,40.00
2019-03-06T14:27:57.563Z,40.10
2019-03-06T14:31:01.924Z,39.70
2019-03-06T14:34:06.821Z,39.50
2019-03-06T14:37:11.280Z,39.80
2019-03-06T14:40:21.703Z,39.80
2019-03-06T14:43:29.205Z,39.60
2019-03-06T14:46:33.556Z,39.60
2019-03-06T14:49:37.874Z,39.80
2019-03-06T14:52:42.250Z,39.60
2019-03-06T14:55:46.717Z,40.00
2019-03-06T14:58:51.042Z,40.20
2019-03-06T15:01:55.366Z,40.30
2019-03-06T15:05:00.042Z,40.40
2019-03-06T15:08:06.471Z,41.20
2019-03-06T15:11:10.811Z,40.80
2019-03-06T15:14:15.571Z,40.80
2019-03-06T15:17:19.920Z,41.00
2019-03-06T15:20:24.845Z,40.90
2019-03-06T15:23:29.199Z,40.40
2019-03-06T15:26:33.646Z,40.60
2019-03-06T15:29:38.019Z,40.70
2019-03-06T15:32:42.401Z,41.00
2019-03-06T15:35:46.763Z,41.20
2019-03-06T15:38:51.055Z,41.40
2019-03-06T15:42:00.533Z,41.60
2019-03-06T15:45:01.969Z,41.70
2019-03-06T15:48:09.338Z,41.90
2019-03-06T15:51:13.834Z,42.30
2019-03-06T15:54:18.621Z,43.40
2019-03-06T15:57:23.016Z,42.70
2019-03-06T16:00:45.751Z,42.90
2019-03-06T16:03:43.525Z,43.10
2019-03-06T16:06:53.964Z,43.00
2019-03-06T16:09:55.289Z,43.40
2019-03-06T16:12:59.764Z,44.10
2019-03-06T16:16:04.523Z,44.10
2019-03-06T16:19:20.763Z,44.30
2019-03-06T16:22:26.320Z,45.30
2019-03-06T16:25:36.905Z,44.80
2019-03-06T16:28:37.730Z,45.10
2019-03-06T16:31:42.388Z,45.40
2019-03-06T16:34:46.902Z,45.80
2019-03-06T16:37:51.401Z,46.00
2019-03-06T16:40:55.789Z,46.30
2019-03-06T16:44:00.185Z,46.70
2019-03-06T16:47:06.973Z,47.20
2019-03-06T16:50:15.973Z,47.40
2019-03-06T16:53:19.203Z,49.20
2019-03-06T16:56:23.554Z,49.10
2019-03-06T16:59:27.959Z,49.40
2019-03-06T17:02:32.344Z,49.70
2019-03-06T17:05:36.741Z,50.00
2019-03-06T17:08:41.174Z,50.30
2019-03-06T17:11:45.608Z,50.60
2019-03-06T17:14:49.967Z,50.90
2019-03-06T17:17:54.959Z,51.30
2019-03-06T17:20:59.309Z,51.50
2019-03-06T17:24:03.710Z,51.80
2019-03-06T17:27:08.728Z,52.10
2019-03-06T17:30:20.057Z,52.40
2019-03-06T17:33:24.703Z,52.80
2019-03-06T17:36:29.257Z,53.20
2019-03-06T17:39:33.657Z,53.60
2019-03-06T17:42:38.476Z,53.90
2019-03-06T17:45:43.550Z,54.10
2019-03-06T17:48:49.627Z,54.40
2019-03-06T17:51:54.123Z,54.60
2019-03-06T17:55:00.836Z,54.90
2019-03-06T17:58:05.869Z,55.00
2019-03-06T18:01:17.841Z,55.20
2019-03-06T18:04:25.150Z,55.30
2019-03-06T18:07:31.145Z,55.60
2019-03-06T18:10:35.561Z,55.80
2019-03-06T18:13:40.131Z,56.00
2019-03-06T18:16:44.613Z,56.20
2019-03-06T18:19:49.183Z,56.30
2019-03-06T18:22:55.231Z,56.40
2019-03-06T18:25:59.860Z,56.60
2019-03-06T18:29:04.249Z,56.80
2019-03-06T18:32:08.964Z,57.00
2019-03-06T18:35:14.223Z,60.20
2019-03-06T18:38:18.798Z,61.20
2019-03-06T18:41:23.263Z,61.80
2019-03-06T18:44:27.673Z,61.90
2019-03-06T18:47:32.050Z,62.20
2019-03-06T18:50:36.523Z,63.10
2019-03-06T18:53:40.895Z,63.90
2019-03-06T18:56:46.242Z,63.10
2019-03-06T18:59:50.634Z,62.50
2019-03-06T19:02:55.043Z,61.90
2019-03-06T19:05:59.427Z,62.20
2019-03-06T19:09:05.515Z,61.80
2019-03-06T19:12:09.792Z,61.80
2019-03-06T19:15:16.268Z,62.70
2019-03-06T19:18:20.633Z,61.60
2019-03-06T19:21:25.360Z,61.80
2019-03-06T19:24:31.025Z,61.50
2019-03-06T19:27:35.889Z,61.50
2019-03-06T19:30:40.881Z,61.60
2019-03-06T19:33:45.876Z,61.30
2019-03-06T19:36:50.260Z,61.50
2019-03-06T19:39:55.030Z,61.70
2019-03-06T19:42:59.417Z,61.70
2019-03-06T19:46:04.499Z,61.80
2019-03-06T19:49:09.312Z,61.70
2019-03-06T19:52:13.881Z,61.20
2019-03-06T19:55:19.019Z,61.80
2019-03-06T19:58:23.469Z,61.80
2019-03-06T20:01:27.903Z,62.00
2019-03-06T20:04:32.294Z,62.10
2019-03-06T20:07:36.844Z,62.10
2019-03-06T20:10:41.787Z,62.20
2019-03-06T20:13:46.168Z,62.30
2019-03-06T20:16:50.873Z,62.40
2019-03-06T20:19:55.228Z,62.20
2019-03-06T20:22:59.791Z,62.50
2019-03-06T20:26:13.827Z,62.50
2019-03-06T20:29:12.938Z,62.40
2019-03-06T20:32:17.306Z,62.30
2019-03-06T20:35:22.804Z,62.40
2019-03-06T20:38:27.362Z,62.50
2019-03-06T20:41:31.778Z,62.50
2019-03-06T20:44:38.476Z,63.40
2019-03-06T20:47:43.064Z,62.70
2019-03-06T20:50:47.408Z,62.70
2019-03-06T20:53:51.863Z,62.70
2019-03-06T20:56:56.531Z,62.90
2019-03-06T21:00:00.847Z,62.90
2019-03-06T21:03:07.013Z,62.90
2019-03-06T21:06:11.437Z,62.30
2019-03-06T21:09:17.114Z,63.00
2019-03-06T21:12:21.873Z,63.00
2019-03-06T21:15:26.272Z,63.20
2019-03-06T21:18:30.653Z,63.10
2019-03-06T21:21:35.154Z,63.20
2019-03-06T21:24:39.859Z,64.20
2019-03-06T21:27:44.233Z,63.80
2019-03-06T21:30:48.731Z,63.40
2019-03-06T21:33:53.816Z,63.60
2019-03-06T21:36:58.286Z,63.60
2019-03-06T21:40:02.670Z,63.90
2019-03-06T21:43:07.055Z,63.60
2019-03-06T21:46:11.425Z,63.60
2019-03-06T21:49:15.816Z,63.60
2019-03-06T21:52:20.169Z,63.90
2019-03-06T21:55:27.638Z,63.90
2019-03-06T21:58:32.080Z,63.80
2019-03-06T22:01:36.486Z,64.00
2019-03-06T22:04:45.256Z,63.90
2019-03-06T22:07:50.860Z,63.80
2019-03-06T22:10:55.831Z,64.00
2019-03-06T22:14:00.244Z,64.00
2019-03-06T22:17:04.635Z,65.20
2019-03-06T22:20:11.604Z,64.10
2019-03-06T22:23:15.972Z,64.10
2019-03-06T22:26:20.344Z,64.20
2019-03-06T22:29:24.690Z,64.20
2019-03-06T22:32:29.106Z,64.60
2019-03-06T22:35:33.457Z,64.30
2019-03-06T22:38:38.032Z,64.30
2019-03-06T22:41:42.429Z,64.50
2019-03-06T22:44:46.759Z,64.50
2019-03-06T22:47:51.049Z,65.60
2019-03-06T22:50:55.348Z,64.50
2019-03-06T22:53:59.710Z,64.60
2019-03-06T22:57:04.124Z,64.80
2019-03-06T23:00:33.556Z,64.70
2019-03-06T23:03:37.944Z,64.70
2019-03-06T23:06:42.217Z,65.00
2019-03-06T23:09:46.581Z,65.10
2019-03-06T23:12:51.290Z,65.00
2019-03-06T23:15:55.678Z,65.00
2019-03-06T23:19:00.041Z,65.10
2019-03-06T23:22:04.426Z,65.10
2019-03-06T23:25:08.774Z,65.10
2019-03-06T23:28:13.203Z,65.00
2019-03-06T23:31:17.572Z,65.10
2019-03-06T23:34:21.986Z,65.00
2019-03-06T23:37:26.324Z,65.00
2019-03-06T23:40:30.710Z,65.10
2019-03-06T23:43:35.051Z,65.10
2019-03-06T23:46:39.440Z,65.10
2019-03-06T23:49:43.717Z,65.10
2019-03-06T23:53:07.688Z,65.00
2019-03-06T23:56:12.023Z,65.00
2019-03-06T23:59:17.870Z,64.90
